Time;durP1;ratioP1;P1;durP2;ratioP2;P2;SDS_P1;SDS_P2;PMS_P1;PMS_P2;Temp;Humidity;BMP_temperature;BMP_pressure;BME280_temperature;BME280_humidity;BME280_pressure;Samples;Min_cycle;Max_cycle;Signal;HPM_P1;HPM_P2
2021/12/25 00:00:09;;;;;;;3.53;0.82;;;5.70;99.90;;;;;;4997476;28;20049;-69
2021/12/25 00:02:36;;;;;;;1.45;1.00;;;5.70;99.90;;;;;;4997215;28;20056;-70
2021/12/25 00:05:04;;;;;;;1.95;1.15;;;5.70;99.90;;;;;;4997700;28;20041;-69
2021/12/25 00:07:31;;;;;;;4.03;0.95;;;5.60;99.90;;;;;;4997625;28;20100;-69
2021/12/25 00:10:00;;;;;;;1.10;0.80;;;5.60;99.90;;;;;;4996541;28;20049;-69
2021/12/25 00:12:27;;;;;;;1.80;1.20;;;5.60;99.90;;;;;;4998361;28;20139;-69
2021/12/25 00:14:54;;;;;;;1.40;0.85;;;5.60;99.90;;;;;;4997156;28;20578;-70
2021/12/25 00:17:21;;;;;;;3.05;1.00;;;5.60;99.90;;;;;;4995144;28;20583;-69
2021/12/25 00:19:48;;;;;;;;;;;5.60;99.90;;;;;;4997385;28;20058;-69
2021/12/25 00:22:15;;;;;;;4.37;1.10;;;5.60;99.90;;;;;;4997423;28;19929;-69
2021/12/25 00:24:44;;;;;;;;;;;5.60;99.90;;;;;;4996812;28;20350;-69
2021/12/25 00:27:37;;;;;;;1.85;1.48;;;5.50;99.90;;;;;;4997538;28;19932;-69
2021/12/25 00:35:04;;;;;;;1.13;0.95;;;5.40;99.90;;;;;;4997228;28;20116;-70
2021/12/25 00:37:30;;;;;;;2.00;0.82;;;5.40;99.90;;;;;;4996741;28;20088;-70
2021/12/25 00:39:57;;;;;;;1.17;0.90;;;5.30;99.90;;;;;;4995929;28;20503;-69
2021/12/25 00:42:24;;;;;;;;;;;5.30;99.90;;;;;;5012402;28;20053;-69
2021/12/25 00:44:50;;;;;;;0.77;0.65;;;5.20;99.90;;;;;;4996524;28;20011;-69
2021/12/25 00:47:17;;;;;;;;;;;5.20;99.90;;;;;;4995769;28;20057;-69
2021/12/25 00:49:44;;;;;;;3.10;1.10;;;5.20;99.90;;;;;;4989717;28;20157;-69
2021/12/25 00:52:11;;;;;;;2.92;1.42;;;5.20;99.90;;;;;;4995483;28;20221;-69
2021/12/25 00:54:38;;;;;;;2.47;0.77;;;5.10;99.90;;;;;;5010526;28;20617;-69
2021/12/25 00:57:06;;;;;;;1.30;0.70;;;5.10;99.90;;;;;;4994904;28;20065;-69
2021/12/25 00:59:34;;;;;;;0.73;0.70;;;5.10;99.90;;;;;;4996001;28;20401;-69
2021/12/25 01:02:01;;;;;;;0.82;0.82;;;5.10;99.90;;;;;;4994028;28;20072;-69
2021/12/25 01:04:28;;;;;;;1.13;0.80;;;5.10;99.90;;;;;;4995086;28;20046;-69
2021/12/25 01:06:55;;;;;;;1.20;1.10;;;5.00;99.90;;;;;;4993682;28;20041;-69
2021/12/25 01:09:22;;;;;;;;;;;5.00;99.90;;;;;;4996141;28;20064;-70
2021/12/25 01:11:51;;;;;;;2.15;0.80;;;5.00;99.90;;;;;;4994767;28;19930;-70
2021/12/25 01:20:03;;;;;;;1.92;1.05;;;4.80;99.90;;;;;;4993925;28;20829;-70
2021/12/25 01:36:31;;;;;;;1.42;0.82;;;4.70;99.90;;;;;;5009332;28;20057;-69
2021/12/25 01:49:59;;;;;;;3.30;1.58;;;4.90;99.90;;;;;;5004239;28;20045;-70
2021/12/25 01:52:29;;;;;;;1.80;1.20;;;5.00;99.90;;;;;;4996021;28;20533;-69
2021/12/25 01:55:00;;;;;;;3.03;1.08;;;5.00;99.90;;;;;;4993244;28;20053;-70
2021/12/25 01:57:29;;;;;;;7.90;3.67;;;5.00;99.90;;;;;;5010481;28;20123;-69
2021/12/25 01:59:57;;;;;;;3.33;1.17;;;5.10;99.90;;;;;;5009412;28;20050;-70
2021/12/25 02:02:25;;;;;;;3.58;1.20;;;5.10;99.90;;;;;;4993882;28;20053;-69
2021/12/25 02:04:53;;;;;;;1.90;1.10;;;5.10;99.90;;;;;;4994293;28;20048;-69
2021/12/25 02:07:20;;;;;;;2.00;1.40;;;5.10;99.90;;;;;;5011004;28;20531;-70
2021/12/25 02:09:48;;;;;;;1.23;1.13;;;5.20;99.90;;;;;;5010338;28;20046;-69
2021/12/25 02:12:16;;;;;;;1.23;1.13;;;5.20;99.90;;;;;;5010280;28;20077;-69
2021/12/25 02:14:46;;;;;;;2.03;1.30;;;5.30;99.90;;;;;;4995557;28;20042;-69
2021/12/25 02:17:23;;;;;;;1.70;1.05;;;5.30;99.90;;;;;;5003458;28;20434;-69
2021/12/25 02:20:11;;;;;;;2.00;1.50;;;5.30;99.90;;;;;;4990355;28;20108;-69
2021/12/25 02:22:39;;;;;;;1.67;1.15;;;5.40;99.90;;;;;;4993181;28;20116;-69
2021/12/25 02:25:07;;;;;;;1.52;1.20;;;5.40;99.90;;;;;;4994185;28;20898;-69
2021/12/25 02:27:33;;;;;;;2.75;1.48;;;5.40;99.90;;;;;;4996066;28;20427;-69
2021/12/25 02:30:00;;;;;;;;;;;5.40;99.90;;;;;;4995098;28;20042;-70
2021/12/25 02:32:27;;;;;;;1.48;1.05;;;5.40;99.90;;;;;;5010346;28;20203;-69
2021/12/25 02:34:54;;;;;;;1.30;1.10;;;5.40;99.90;;;;;;5009686;28;20058;-70
2021/12/25 02:37:21;;;;;;;;;;;5.40;99.90;;;;;;4995851;28;20046;-69
2021/12/25 02:39:48;;;;;;;3.20;1.40;;;5.30;99.90;;;;;;5009730;28;19999;-69
2021/12/25 02:42:15;;;;;;;1.38;1.23;;;5.30;99.90;;;;;;5010402;28;20050;-69
2021/12/25 02:44:42;;;;;;;2.03;1.20;;;5.30;99.90;;;;;;5009924;28;20513;-69
2021/12/25 02:47:15;;;;;;;0.95;0.88;;;5.30;99.90;;;;;;4994944;28;20127;-69
2021/12/25 02:49:51;;;;;;;1.17;1.00;;;5.20;99.90;;;;;;4990480;28;20053;-69
2021/12/25 02:52:18;;;;;;;1.10;1.00;;;5.10;99.90;;;;;;5012796;28;20073;-69
2021/12/25 02:54:45;;;;;;;1.75;1.05;;;5.10;99.90;;;;;;4999045;28;20619;-69
2021/12/25 02:57:12;;;;;;;1.40;0.90;;;5.00;99.90;;;;;;4997488;28;20067;-68
2021/12/25 02:59:40;;;;;;;2.42;1.60;;;5.00;99.90;;;;;;4997465;28;20298;-69
2021/12/25 03:02:12;;;;;;;2.78;1.33;;;5.00;99.90;;;;;;4997537;28;20245;-69
2021/12/25 03:04:43;;;;;;;2.30;1.10;;;4.90;99.90;;;;;;4997120;28;20302;-69
2021/12/25 03:07:11;;;;;;;1.58;1.05;;;4.90;99.90;;;;;;4998034;28;20038;-68
2021/12/25 03:09:40;;;;;;;3.28;1.10;;;4.90;99.90;;;;;;5012650;28;20152;-69
2021/12/25 03:12:09;;;;;;;1.55;1.23;;;4.90;99.90;;;;;;4997032;28;20112;-69
2021/12/25 03:14:50;;;;;;;1.15;1.00;;;4.90;99.90;;;;;;5012094;28;20050;-69
2021/12/25 03:17:18;;;;;;;2.00;1.10;;;4.90;99.90;;;;;;4996550;28;20411;-68
2021/12/25 03:19:44;;;;;;;1.85;1.45;;;4.90;99.90;;;;;;4997799;28;20065;-69
2021/12/25 03:22:11;;;;;;;;;;;4.90;99.90;;;;;;4998151;28;20034;-69
2021/12/25 03:24:38;;;;;;;1.10;1.00;;;4.90;99.90;;;;;;5029437;28;20423;-69
2021/12/25 03:27:04;;;;;;;1.58;1.45;;;4.90;99.90;;;;;;4998292;28;20110;-69
2021/12/25 03:29:35;;;;;;;;;;;4.90;99.90;;;;;;4995978;28;20038;-69
2021/12/25 03:32:02;;;;;;;0.80;0.80;;;4.90;99.90;;;;;;4996802;28;19936;-69
2021/12/25 03:34:30;;;;;;;1.30;1.00;;;4.90;99.90;;;;;;4996631;28;20084;-69
2021/12/25 03:36:57;;;;;;;0.95;0.88;;;4.80;99.90;;;;;;4997311;28;20046;-69
2021/12/25 03:39:24;;;;;;;2.65;1.00;;;4.70;99.90;;;;;;4996320;28;20052;-70
2021/12/25 03:41:51;;;;;;;;;;;4.70;99.90;;;;;;4998827;28;20037;-70
2021/12/25 03:44:17;;;;;;;1.77;0.73;;;4.70;99.90;;;;;;5012180;28;19972;-69
2021/12/25 03:46:44;;;;;;;;;;;4.60;99.90;;;;;;4998837;28;20068;-68
2021/12/25 03:49:26;;;;;;;1.20;1.10;;;4.60;99.90;;;;;;5022361;28;19931;-69
2021/12/25 03:57:38;;;;;;;2.03;1.30;;;4.40;99.90;;;;;;5012467;28;20046;-69
2021/12/25 04:00:08;;;;;;;1.85;1.00;;;4.40;99.90;;;;;;4994055;28;20526;-69
2021/12/25 04:02:52;;;;;;;2.45;1.20;;;4.30;99.90;;;;;;4996956;28;20048;-69
2021/12/25 04:05:26;;;;;;;0.98;0.90;;;4.30;99.90;;;;;;5012715;28;20050;-70
2021/12/25 04:08:01;;;;;;;1.25;1.00;;;4.30;99.90;;;;;;4995978;28;20092;-69
2021/12/25 04:10:33;;;;;;;0.98;0.73;;;4.20;99.90;;;;;;4997325;28;20534;-70
2021/12/25 04:13:00;;;;;;;1.30;0.95;;;4.20;99.90;;;;;;4997043;28;20049;-69
2021/12/25 04:15:27;;;;;;;1.30;1.20;;;4.20;99.90;;;;;;4995924;28;20086;-69
2021/12/25 04:17:54;;;;;;;;;;;4.20;99.90;;;;;;4984051;28;20047;-69
2021/12/25 04:20:21;;;;;;;3.28;1.25;;;4.10;99.90;;;;;;4996325;28;19925;-70
2021/12/25 04:22:56;;;;;;;;;;;4.10;99.90;;;;;;4997622;28;20046;-70
2021/12/25 04:25:27;;;;;;;2.17;1.25;;;4.00;99.90;;;;;;4997326;28;19979;-70
2021/12/25 04:27:59;;;;;;;1.88;1.48;;;4.00;99.90;;;;;;4995433;28;20244;-69
2021/12/25 04:31:06;;;;;;;2.72;1.40;;;4.00;99.90;;;;;;4994193;28;20112;-69
2021/12/25 05:01:41;;;;;;;1.52;1.38;;;3.80;99.90;;;;;;5000761;28;20080;-69
2021/12/25 05:04:56;;;;;;;2.88;1.73;;;3.70;99.90;;;;;;4979800;28;20057;-69
2021/12/25 05:07:55;;;;;;;1.92;1.20;;;3.70;99.90;;;;;;4984526;28;20060;-70
2021/12/25 05:10:22;;;;;;;1.77;1.13;;;3.70;99.90;;;;;;4995616;28;20578;-70
2021/12/25 05:12:49;;;;;;;;;;;3.60;99.90;;;;;;4994297;28;20042;-70
2021/12/25 05:15:16;;;;;;;2.80;1.63;;;3.60;99.90;;;;;;5011887;28;20451;-70
2021/12/25 05:17:43;;;;;;;5.82;2.13;;;3.60;99.90;;;;;;4984254;28;20528;-69
2021/12/25 05:20:10;;;;;;;;;;;3.50;99.90;;;;;;5008332;28;20616;-70
2021/12/25 05:22:37;;;;;;;3.33;1.33;;;3.50;99.90;;;;;;4996169;28;19925;-70
2021/12/25 05:25:04;;;;;;;;;;;3.50;99.90;;;;;;4995180;28;20431;-70
2021/12/25 05:27:34;;;;;;;1.10;0.90;;;3.50;99.90;;;;;;4993698;28;19925;-70
2021/12/25 05:30:02;;;;;;;3.28;1.45;;;3.50;99.90;;;;;;4994431;28;20677;-69
2021/12/25 05:32:46;;;;;;;1.98;1.08;;;3.50;99.90;;;;;;5027467;28;20061;-70
2021/12/25 05:35:29;;;;;;;3.25;1.73;;;3.40;99.90;;;;;;5010254;28;20164;-70
2021/12/25 05:38:13;;;;;;;4.13;1.73;;;3.40;99.90;;;;;;4994405;28;20057;-70
2021/12/25 05:40:51;;;;;;;3.70;1.63;;;3.30;99.90;;;;;;4994087;28;20077;-70
2021/12/25 05:43:18;;;;;;;2.28;1.73;;;3.30;99.90;;;;;;5010547;28;20053;-70
2021/12/25 05:45:45;;;;;;;;;;;3.30;99.90;;;;;;5028299;28;20508;-71
2021/12/25 05:48:22;;;;;;;1.50;1.15;;;3.30;99.90;;;;;;5009670;28;19921;-69
2021/12/25 05:51:08;;;;;;;2.10;1.33;;;3.30;99.90;;;;;;4990205;28;20535;-69
2021/12/25 05:53:55;;;;;;;1.17;1.08;;;3.30;99.90;;;;;;4995457;28;20056;-70
2021/12/25 05:56:53;;;;;;;3.17;1.02;;;3.30;99.90;;;;;;4989958;28;20143;-70
2021/12/25 05:59:37;;;;;;;2.58;1.33;;;3.30;99.90;;;;;;4994653;28;20071;-70
2021/12/25 06:02:36;;;;;;;8.40;2.28;;;3.30;99.90;;;;;;4993460;28;20558;-71
2021/12/25 06:05:06;;;;;;;3.83;1.38;;;3.30;99.90;;;;;;4993684;28;20393;-70
2021/12/25 06:07:33;;;;;;;2.25;1.20;;;3.30;99.90;;;;;;4995532;28;20677;-70
2021/12/25 06:10:06;;;;;;;1.92;1.48;;;3.30;99.90;;;;;;4993851;28;20046;-70
2021/12/25 06:12:33;;;;;;;2.35;1.55;;;3.30;99.90;;;;;;4993797;28;20091;-70
2021/12/25 06:15:02;;;;;;;1.98;1.70;;;3.30;99.90;;;;;;4993384;28;20054;-70
2021/12/25 06:17:51;;;;;;;3.55;1.90;;;3.20;99.90;;;;;;5008153;28;20107;-70
2021/12/25 06:20:24;;;;;;;1.92;1.52;;;3.20;99.90;;;;;;4992800;28;20057;-69
2021/12/25 06:23:18;;;;;;;1.80;1.38;;;3.20;99.90;;;;;;5015012;28;20045;-70
2021/12/25 06:25:52;;;;;;;2.20;1.70;;;3.20;99.90;;;;;;4997663;28;20427;-69
2021/12/25 06:28:26;;;;;;;2.45;1.67;;;3.20;99.90;;;;;;5014885;28;20516;-69
2021/12/25 06:31:16;;;;;;;2.53;1.40;;;3.20;99.90;;;;;;4998583;28;20109;-70
2021/12/25 06:34:07;;;;;;;1.98;1.48;;;3.20;99.90;;;;;;4998749;28;20076;-70
2021/12/25 06:36:55;;;;;;;2.35;1.30;;;3.20;99.90;;;;;;4998892;28;20065;-70
2021/12/25 06:39:31;;;;;;;3.15;1.30;;;3.20;99.90;;;;;;5013534;28;20258;-70
2021/12/25 06:42:05;;;;;;;1.50;1.40;;;3.20;99.90;;;;;;4996749;28;20090;-70
2021/12/25 06:44:33;;;;;;;5.00;1.30;;;3.20;99.90;;;;;;5014094;28;20052;-70
2021/12/25 06:47:01;;;;;;;2.65;1.65;;;3.20;99.90;;;;;;4997471;28;20498;-70
2021/12/25 06:49:29;;;;;;;2.33;1.58;;;3.20;99.90;;;;;;4995742;28;20104;-69
2021/12/25 06:52:31;;;;;;;4.57;1.90;;;3.20;99.90;;;;;;4937559;28;20047;-70
2021/12/25 06:55:15;;;;;;;2.58;1.55;;;3.20;99.90;;;;;;5005017;28;20677;-69
2021/12/25 06:57:59;;;;;;;2.63;1.88;;;3.10;99.90;;;;;;5013252;28;20046;-70
2021/12/25 07:00:27;;;;;;;2.90;1.70;;;3.10;99.90;;;;;;5012894;28;20046;-70
2021/12/25 07:02:55;;;;;;;2.20;1.90;;;3.10;99.90;;;;;;5013294;28;20038;-69
2021/12/25 07:05:41;;;;;;;3.35;2.22;;;3.10;99.90;;;;;;4998263;28;20069;-70
2021/12/25 07:08:31;;;;;;;2.80;1.63;;;3.10;99.90;;;;;;5013488;28;20136;-69
2021/12/25 07:11:20;;;;;;;3.55;2.05;;;3.10;99.90;;;;;;4998071;28;20042;-70
2021/12/25 07:14:07;;;;;;;3.72;1.58;;;3.10;99.90;;;;;;4997065;28;20064;-69
2021/12/25 07:16:47;;;;;;;4.38;2.25;;;3.20;99.90;;;;;;4996466;28;20192;-69
2021/12/25 07:19:33;;;;;;;5.03;1.90;;;3.10;99.90;;;;;;4995517;28;20060;-68
2021/12/25 07:22:20;;;;;;;5.03;2.63;;;3.10;99.90;;;;;;4996716;28;20076;-61
2021/12/25 07:25:08;;;;;;;2.37;1.97;;;3.20;99.90;;;;;;4976673;28;20738;-60
2021/12/25 07:27:54;;;;;;;2.67;2.03;;;3.20;99.90;;;;;;4996582;28;20217;-60
2021/12/25 07:30:20;;;;;;;2.92;2.15;;;3.30;99.90;;;;;;4997411;28;20492;-60
2021/12/25 07:32:47;;;;;;;;;;;3.30;99.90;;;;;;5012992;28;20101;-60
2021/12/25 07:35:14;;;;;;;3.50;2.05;;;3.30;99.90;;;;;;4997106;28;19933;-60
2021/12/25 07:37:41;;;;;;;;;;;3.40;99.90;;;;;;4998173;28;20505;-61
2021/12/25 07:40:09;;;;;;;3.67;2.45;;;3.40;99.90;;;;;;4997348;28;19929;-59
2021/12/25 07:42:36;;;;;;;3.40;2.58;;;3.50;99.90;;;;;;4996615;28;20053;-58
2021/12/25 07:45:22;;;;;;;2.67;2.20;;;3.50;99.90;;;;;;4997566;28;20135;-58
2021/12/25 07:47:58;;;;;;;4.97;2.40;;;3.60;99.90;;;;;;4993903;28;20125;-59
2021/12/25 07:50:25;;;;;;;3.80;2.40;;;3.60;99.90;;;;;;4991756;28;20053;-58
2021/12/25 07:52:52;;;;;;;4.15;2.63;;;3.60;99.90;;;;;;4998176;28;20050;-58
2021/12/25 07:55:19;;;;;;;;;;;3.70;99.90;;;;;;4997053;28;20096;-58
2021/12/25 07:57:46;;;;;;;3.45;2.10;;;3.70;99.90;;;;;;4996085;28;19961;-57
2021/12/25 08:00:14;;;;;;;6.18;2.35;;;3.70;99.90;;;;;;4997292;28;20513;-59
2021/12/25 08:02:43;;;;;;;3.63;2.60;;;3.70;99.90;;;;;;4996970;28;20123;-59
2021/12/25 08:05:11;;;;;;;3.83;2.60;;;3.80;99.90;;;;;;4995499;28;20037;-59
2021/12/25 08:07:38;;;;;;;3.80;2.20;;;3.80;99.90;;;;;;4997726;28;20598;-60
2021/12/25 08:10:13;;;;;;;4.97;3.22;;;3.80;99.90;;;;;;4996151;28;20132;-60
2021/12/25 08:12:52;;;;;;;4.25;2.88;;;3.80;99.90;;;;;;4997156;28;20052;-61
2021/12/25 08:15:22;;;;;;;3.50;2.22;;;3.80;99.90;;;;;;4997089;28;20434;-60
2021/12/25 08:17:49;;;;;;;3.83;2.45;;;3.90;99.90;;;;;;4994655;28;20159;-60
2021/12/25 08:20:47;;;;;;;5.47;2.63;;;3.90;99.90;;;;;;4977318;28;20061;-60
2021/12/25 08:23:50;;;;;;;4.28;2.60;;;3.90;99.90;;;;;;4955253;28;20078;-61
2021/12/25 08:26:57;;;;;;;6.47;2.80;;;3.90;99.90;;;;;;4976986;28;20240;-61
2021/12/25 08:29:53;;;;;;;6.38;3.05;;;3.90;99.90;;;;;;4976949;28;20089;-59
2021/12/25 08:32:39;;;;;;;14.52;6.85;;;4.00;99.90;;;;;;4976310;28;20108;-59
2021/12/25 08:35:33;;;;;;;8.20;4.97;;;4.00;99.90;;;;;;4961287;28;20089;-58
2021/12/25 08:38:00;;;;;;;4.55;3.30;;;4.10;99.90;;;;;;4991417;28;20424;-58
2021/12/25 08:40:27;;;;;;;7.80;3.05;;;4.10;99.90;;;;;;4976237;28;20595;-59
2021/12/25 08:43:00;;;;;;;3.28;2.60;;;4.10;99.90;;;;;;4977497;28;20092;-60
2021/12/25 08:48:06;;;;;;;2.83;2.30;;;4.20;99.90;;;;;;4976536;28;20125;-59
2021/12/25 08:50:33;;;;;;;5.57;2.88;;;4.20;99.90;;;;;;4989169;28;20304;-59
2021/12/25 08:53:00;;;;;;;3.88;2.67;;;4.30;99.90;;;;;;4996655;28;20096;-59
2021/12/25 08:55:27;;;;;;;;;;;4.30;99.90;;;;;;4996438;28;20103;-60
2021/12/25 08:57:54;;;;;;;1.97;1.77;;;4.40;99.90;;;;;;4996575;28;20434;-59
2021/12/25 09:00:20;;;;;;;;;;;4.40;99.90;;;;;;4996870;28;20292;-60
2021/12/25 09:02:48;;;;;;;3.28;2.15;;;4.40;99.90;;;;;;5010636;28;20859;-60
2021/12/25 09:05:15;;;;;;;3.53;2.17;;;4.50;99.90;;;;;;4997206;28;20405;-59
2021/12/25 09:07:42;;;;;;;2.90;2.40;;;4.50;99.90;;;;;;4996913;28;20624;-59
2021/12/25 09:10:08;;;;;;;;;;;4.50;99.90;;;;;;4997331;28;20095;-59
2021/12/25 09:12:40;;;;;;;4.72;2.85;;;4.60;99.90;;;;;;5012545;28;19983;-60
2021/12/25 09:15:08;;;;;;;3.67;2.40;;;4.70;99.90;;;;;;4997748;28;20049;-60
2021/12/25 09:17:35;;;;;;;4.85;3.17;;;4.70;99.90;;;;;;4994320;28;20089;-59
2021/12/25 09:20:03;;;;;;;;;;;4.70;99.90;;;;;;4997087;28;20050;-59
2021/12/25 09:22:30;;;;;;;4.53;2.33;;;4.80;99.90;;;;;;4996975;28;20016;-59
2021/12/25 09:24:57;;;;;;;;;;;4.80;99.90;;;;;;4995705;28;20042;-59
2021/12/25 09:27:24;;;;;;;4.95;3.05;;;4.90;99.90;;;;;;4996935;28;20382;-60
2021/12/25 09:29:51;;;;;;;5.22;3.45;;;4.90;99.90;;;;;;4995575;28;20110;-59
2021/12/25 09:32:18;;;;;;;3.20;2.42;;;4.90;99.90;;;;;;4995965;28;20405;-66
2021/12/25 09:34:45;;;;;;;;;;;4.90;99.90;;;;;;4982744;28;20058;-59
2021/12/25 09:37:12;;;;;;;3.83;2.38;;;4.90;99.90;;;;;;4975973;28;20379;-57
2021/12/25 09:39:40;;;;;;;4.80;3.00;;;5.00;99.90;;;;;;4975481;28;20046;-57
2021/12/25 09:42:07;;;;;;;4.35;2.88;;;5.00;99.90;;;;;;4976317;28;20251;-58
2021/12/25 09:44:34;;;;;;;5.13;2.90;;;5.10;99.90;;;;;;4985092;28;20522;-58
2021/12/25 09:47:01;;;;;;;;;;;5.10;99.90;;;;;;4995410;28;20045;-58
2021/12/25 09:49:27;;;;;;;3.65;2.33;;;5.10;99.90;;;;;;4991507;28;19930;-59
2021/12/25 09:51:54;;;;;;;;;;;5.10;99.90;;;;;;4978463;28;20050;-57
2021/12/25 09:54:21;;;;;;;6.70;3.05;;;5.10;99.90;;;;;;4995097;28;19972;-58
2021/12/25 09:56:51;;;;;;;4.20;3.30;;;5.10;99.90;;;;;;4995127;28;20046;-58
2021/12/25 09:59:18;;;;;;;4.32;2.78;;;5.10;99.90;;;;;;4995274;28;20053;-59
2021/12/25 10:01:46;;;;;;;;;;;5.20;99.90;;;;;;4995454;28;20046;-59
2021/12/25 10:04:34;;;;;;;3.67;2.35;;;5.20;99.90;;;;;;4995538;28;20184;-56
2021/12/25 10:07:28;;;;;;;3.50;2.25;;;5.20;99.90;;;;;;4995723;28;20042;-55
2021/12/25 10:10:10;;;;;;;4.18;2.70;;;5.20;99.90;;;;;;4994271;28;20436;-59
2021/12/25 10:12:46;;;;;;;4.10;2.63;;;5.20;99.90;;;;;;4996041;28;20046;-59
2021/12/25 10:15:16;;;;;;;3.53;2.15;;;5.20;99.90;;;;;;4995873;28;20057;-59
2021/12/25 10:17:50;;;;;;;4.85;2.53;;;5.20;99.90;;;;;;4992382;28;20551;-60
2021/12/25 10:20:20;;;;;;;4.82;3.67;;;5.30;99.90;;;;;;4994330;28;20054;-59
2021/12/25 10:23:09;;;;;;;9.25;3.42;;;5.30;99.90;;;;;;4995035;28;20057;-60
2021/12/25 10:25:46;;;;;;;4.13;3.10;;;5.30;99.90;;;;;;5010410;28;20053;-59
2021/12/25 10:28:16;;;;;;;4.85;3.15;;;5.30;99.90;;;;;;4995008;28;20483;-59
2021/12/25 10:30:59;;;;;;;8.93;4.00;;;5.40;99.90;;;;;;4994325;28;20054;-58
2021/12/25 10:33:29;;;;;;;5.63;3.60;;;5.40;99.90;;;;;;4995170;28;20687;-59
2021/12/25 10:35:58;;;;;;;6.80;4.05;;;5.40;99.90;;;;;;4995473;28;20301;-60
2021/12/25 10:38:25;;;;;;;6.20;3.65;;;5.40;99.90;;;;;;4994546;28;20123;-59
2021/12/25 10:41:20;;;;;;;5.82;3.45;;;5.40;99.90;;;;;;4995174;28;20046;-59
2021/12/25 10:43:50;;;;;;;6.97;4.22;;;5.50;99.90;;;;;;4995146;28;20076;-59
2021/12/25 10:46:16;;;;;;;6.03;4.03;;;5.40;99.90;;;;;;4994331;28;20119;-60
2021/12/25 10:48:44;;;;;;;;;;;5.40;99.90;;;;;;4992061;28;20045;-59
2021/12/25 10:51:29;;;;;;;5.53;3.63;;;5.40;99.90;;;;;;4991896;28;19925;-60
2021/12/25 10:53:58;;;;;;;4.65;2.70;;;5.40;99.90;;;;;;4994652;28;20472;-60
2021/12/25 10:56:36;;;;;;;4.47;2.97;;;5.40;99.90;;;;;;4980636;28;20136;-59
2021/12/25 10:59:06;;;;;;;5.35;3.53;;;5.40;99.90;;;;;;4974950;28;20108;-59
2021/12/25 11:01:41;;;;;;;13.90;4.97;;;5.40;99.90;;;;;;4974376;28;20050;-59
2021/12/25 11:04:32;;;;;;;5.10;3.65;;;5.40;99.90;;;;;;4975697;28;20050;-59
2021/12/25 11:07:10;;;;;;;8.65;3.97;;;5.40;99.90;;;;;;4975347;28;20039;-58
2021/12/25 11:09:37;;;;;;;5.25;3.75;;;5.40;99.90;;;;;;4959858;28;20251;-59
2021/12/25 11:12:18;;;;;;;5.00;3.65;;;5.40;99.90;;;;;;4979223;28;20116;-59
2021/12/25 11:14:50;;;;;;;6.60;4.43;;;5.40;99.90;;;;;;4978687;28;20056;-58
2021/12/25 11:17:22;;;;;;;6.22;3.60;;;5.40;99.90;;;;;;4980602;28;20050;-59
2021/12/25 11:19:57;;;;;;;5.72;4.15;;;5.40;99.90;;;;;;4992463;28;20038;-59
2021/12/25 11:22:25;;;;;;;6.30;4.45;;;5.40;99.90;;;;;;4998165;28;20096;-60
2021/12/25 11:24:53;;;;;;;4.65;3.42;;;5.40;99.90;;;;;;4998208;28;20046;-59
2021/12/25 11:27:22;;;;;;;5.25;3.40;;;5.40;99.90;;;;;;4999084;28;20227;-59
2021/12/25 11:29:49;;;;;;;7.80;5.45;;;5.40;99.90;;;;;;4997087;28;20283;-59
2021/12/25 11:32:18;;;;;;;4.40;3.40;;;5.40;99.90;;;;;;4998519;28;20053;-59
2021/12/25 11:34:45;;;;;;;6.88;4.55;;;5.40;99.90;;;;;;4999569;28;20046;-59
2021/12/25 11:37:13;;;;;;;4.03;3.55;;;5.40;99.90;;;;;;4998506;28;20127;-59
2021/12/25 11:39:42;;;;;;;6.55;4.05;;;5.40;99.90;;;;;;4998567;28;20046;-59
2021/12/25 11:42:11;;;;;;;4.28;3.38;;;5.40;99.90;;;;;;4998653;28;20103;-60
2021/12/25 11:44:46;;;;;;;4.97;2.85;;;5.40;99.90;;;;;;4998805;28;20049;-59
2021/12/25 11:47:37;;;;;;;3.03;2.55;;;5.40;99.90;;;;;;4998714;28;20252;-60
2021/12/25 11:50:24;;;;;;;3.88;2.30;;;5.40;99.90;;;;;;4990348;28;20084;-59
2021/12/25 11:53:07;;;;;;;2.40;1.77;;;5.40;99.90;;;;;;4996311;28;20467;-60
2021/12/25 11:58:36;;;;;;;4.80;2.70;;;5.40;99.90;;;;;;4997710;28;20045;-60
2021/12/25 12:01:18;;;;;;;3.50;2.17;;;5.40;99.90;;;;;;4995302;28;20054;-60
2021/12/25 12:03:57;;;;;;;3.10;2.08;;;5.40;99.90;;;;;;4997156;28;20558;-60
2021/12/25 12:06:45;;;;;;;2.17;1.40;;;5.40;99.90;;;;;;4997331;28;20049;-60
2021/12/25 12:09:44;;;;;;;3.20;1.45;;;5.50;99.90;;;;;;4996803;28;20038;-59
2021/12/25 12:12:46;;;;;;;3.17;1.27;;;5.50;99.90;;;;;;4997028;28;20065;-59
2021/12/25 12:15:57;;;;;;;2.63;1.20;;;5.50;99.90;;;;;;4982466;28;20060;-59
2021/12/25 12:18:55;;;;;;;3.13;1.38;;;5.60;99.90;;;;;;4993808;28;20061;-60
2021/12/25 12:21:28;;;;;;;;;;;5.60;99.90;;;;;;4997653;28;20508;-60
2021/12/25 12:26:49;;;;;;;1.30;1.20;;;5.60;99.90;;;;;;4997319;28;20080;-59
2021/12/25 12:29:39;;;;;;;0.90;0.82;;;5.70;99.90;;;;;;4995620;28;20046;-59
2021/12/25 12:32:34;;;;;;;3.38;1.88;;;5.70;99.90;;;;;;4997300;28;20563;-59
2021/12/25 12:35:02;;;;;;;1.65;1.00;;;5.70;99.90;;;;;;4996415;28;20050;-59
2021/12/25 12:37:32;;;;;;;3.25;0.93;;;5.60;99.90;;;;;;4996578;28;20058;-59
2021/12/25 12:40:04;;;;;;;1.55;0.88;;;5.70;99.90;;;;;;4995899;28;20053;-59
2021/12/25 12:42:40;;;;;;;3.63;1.17;;;5.70;99.90;;;;;;5011669;28;20496;-59
2021/12/25 12:45:19;;;;;;;5.15;1.10;;;5.70;99.90;;;;;;4995718;28;20136;-59
2021/12/25 12:48:08;;;;;;;7.53;1.25;;;5.70;99.90;;;;;;4996014;28;20050;-59
2021/12/25 12:50:37;;;;;;;3.50;1.20;;;5.80;99.90;;;;;;4992187;28;20050;-59
2021/12/25 12:53:09;;;;;;;0.47;0.45;;;5.80;99.90;;;;;;4995744;28;20496;-59
2021/12/25 12:55:38;;;;;;;4.15;1.08;;;5.80;99.90;;;;;;5011469;28;20050;-59
2021/12/25 12:58:13;;;;;;;1.40;1.00;;;5.80;99.90;;;;;;4995925;28;20535;-59
2021/12/25 13:00:43;;;;;;;0.98;0.70;;;5.80;99.90;;;;;;5010897;28;20867;-59
2021/12/25 13:03:10;;;;;;;1.33;0.75;;;5.90;99.90;;;;;;4996150;28;20576;-59
2021/12/25 13:05:44;;;;;;;2.33;0.80;;;5.90;99.90;;;;;;4996138;28;20072;-59
2021/12/25 13:08:20;;;;;;;1.40;0.70;;;5.90;99.90;;;;;;4996400;28;20092;-59
2021/12/25 13:10:51;;;;;;;0.80;0.80;;;5.90;99.90;;;;;;4994123;28;20046;-59
2021/12/25 13:13:25;;;;;;;3.05;0.80;;;5.90;99.90;;;;;;4996411;28;20046;-60
2021/12/25 13:15:58;;;;;;;0.82;0.68;;;5.90;99.90;;;;;;4995877;28;20463;-59
2021/12/25 13:18:30;;;;;;;1.13;0.70;;;5.90;99.90;;;;;;4994270;28;20061;-60
2021/12/25 13:20:57;;;;;;;0.90;0.90;;;5.80;99.90;;;;;;4995090;28;20512;-59
2021/12/25 13:23:32;;;;;;;1.05;0.88;;;5.90;99.90;;;;;;4995805;28;20052;-59
2021/12/25 13:26:02;;;;;;;0.60;0.60;;;5.90;99.90;;;;;;4995391;28;20053;-59
2021/12/25 13:28:33;;;;;;;2.03;0.68;;;5.90;99.90;;;;;;4995953;28;20042;-59
2021/12/25 13:31:10;;;;;;;1.10;0.90;;;5.90;99.90;;;;;;4995284;28;20042;-60
2021/12/25 13:33:45;;;;;;;1.08;0.98;;;5.90;99.90;;;;;;4996288;28;20128;-59
2021/12/25 13:36:15;;;;;;;0.85;0.70;;;5.90;99.90;;;;;;4995226;28;20046;-58
2021/12/25 13:39:02;;;;;;;0.90;0.68;;;5.90;99.90;;;;;;4995744;28;20050;-59
2021/12/25 13:41:32;;;;;;;1.40;0.73;;;5.90;99.90;;;;;;4995755;28;20057;-59
2021/12/25 13:44:18;;;;;;;1.98;1.00;;;5.90;99.90;;;;;;4995025;28;20539;-59
2021/12/25 13:46:44;;;;;;;2.00;1.10;;;5.90;99.90;;;;;;5011114;28;20559;-58
2021/12/25 13:49:25;;;;;;;0.60;0.60;;;5.90;99.90;;;;;;5005316;28;20038;-59
2021/12/25 13:51:52;;;;;;;0.63;0.60;;;5.90;99.90;;;;;;4995166;28;20046;-59
2021/12/25 13:54:20;;;;;;;1.08;0.60;;;5.90;99.90;;;;;;4995904;28;20295;-59
2021/12/25 13:56:52;;;;;;;4.65;1.10;;;5.90;99.90;;;;;;4984801;28;20054;-58
2021/12/25 13:59:19;;;;;;;1.05;0.68;;;5.90;99.90;;;;;;4993423;28;20037;-58
2021/12/25 14:01:56;;;;;;;0.82;0.73;;;5.80;99.90;;;;;;5009893;28;20559;-58
2021/12/25 14:04:23;;;;;;;0.80;0.73;;;5.80;99.90;;;;;;4995938;28;20048;-57
2021/12/25 14:06:49;;;;;;;0.60;0.60;;;5.80;99.90;;;;;;4994448;28;20103;-57
2021/12/25 14:09:16;;;;;;;;;;;5.80;99.90;;;;;;4996020;28;20046;-58
2021/12/25 14:11:55;;;;;;;1.67;1.02;;;5.80;99.90;;;;;;4995233;28;20068;-58
2021/12/25 14:14:24;;;;;;;2.28;0.80;;;5.80;99.90;;;;;;4975709;28;20046;-58
2021/12/25 14:16:51;;;;;;;0.70;0.60;;;5.80;99.90;;;;;;4977805;28;20038;-58
2021/12/25 14:19:28;;;;;;;1.08;1.00;;;5.80;99.90;;;;;;4985211;28;20057;-58
2021/12/25 14:22:04;;;;;;;0.98;0.68;;;5.80;99.90;;;;;;4986472;28;20520;-58
2021/12/25 14:24:46;;;;;;;0.30;0.30;;;5.70;99.90;;;;;;4975161;28;20225;-59
2021/12/25 14:27:16;;;;;;;2.83;1.50;;;5.70;99.90;;;;;;4975478;28;20567;-59
2021/12/25 14:29:45;;;;;;;1.20;0.98;;;5.70;99.90;;;;;;4974634;28;20416;-58
2021/12/25 14:32:26;;;;;;;0.68;0.50;;;5.70;99.90;;;;;;4976260;28;20074;-60
2021/12/25 14:34:55;;;;;;;1.00;0.60;;;5.70;99.90;;;;;;4975112;28;20070;-59
2021/12/25 14:37:52;;;;;;;0.75;0.70;;;5.60;99.90;;;;;;4975548;28;20108;-56
2021/12/25 14:40:22;;;;;;;0.50;0.50;;;5.60;99.90;;;;;;4974787;28;20350;-59
2021/12/25 14:43:01;;;;;;;2.63;0.85;;;5.70;99.90;;;;;;4976088;28;20367;-59
2021/12/25 14:45:27;;;;;;;0.60;0.57;;;5.70;99.90;;;;;;4979434;28;20050;-59
2021/12/25 14:47:58;;;;;;;1.35;0.70;;;5.70;99.90;;;;;;4979688;28;20046;-60
2021/12/25 14:50:32;;;;;;;0.52;0.50;;;5.60;99.90;;;;;;4990044;28;20038;-60
2021/12/25 14:53:15;;;;;;;1.25;0.70;;;5.60;99.90;;;;;;4998869;28;20560;-59
2021/12/25 14:55:48;;;;;;;1.63;1.10;;;5.60;99.90;;;;;;4979094;28;20456;-57